Time;durP1;ratioP1;P1;durP2;ratioP2;P2;SDS_P1;SDS_P2;PMS_P1;PMS_P2;Temp;Humidity;BMP_temperature;BMP_pressure;BME280_temperature;BME280_humidity;BME280_pressure;Samples;Min_cycle;Max_cycle;Signal;HPM_P1;HPM_P2
2023/03/15 00:00:49;;;;;;;4.13;1.55;;;;;;;10.10;34.26;98296.16;6130237;23;20002;-94
2023/03/15 00:03:15;;;;;;;3.22;1.30;;;;;;;10.02;34.16;98289.56;6132044;23;20005;-93
2023/03/15 00:05:47;;;;;;;2.10;1.38;;;;;;;9.93;34.42;98277.06;6130190;23;20002;-94
2023/03/15 00:08:13;;;;;;;2.80;1.38;;;;;;;9.96;34.46;98273.78;6130121;23;20004;-93
2023/03/15 00:10:42;;;;;;;2.30;1.40;;;;;;;10.00;34.63;98275.63;6130648;23;20005;-94
2023/03/15 00:13:11;;;;;;;3.83;1.60;;;;;;;10.00;34.65;98266.72;6130768;23;20032;-93
2023/03/15 00:15:40;;;;;;;3.88;1.70;;;;;;;10.10;34.85;98280.81;6130653;23;20104;-94
2023/03/15 00:18:06;;;;;;;3.00;1.50;;;;;;;9.96;34.98;98255.78;6131815;23;20067;-94
2023/03/15 00:20:32;;;;;;;3.42;1.38;;;;;;;10.04;34.46;98265.06;6130882;23;20001;-93
2023/03/15 00:23:18;;;;;;;2.65;1.40;;;;;;;10.06;35.29;98271.72;6130084;23;20009;-93
2023/03/15 00:25:45;;;;;;;3.42;1.35;;;;;;;10.04;35.07;98267.75;6154408;23;20024;-94
2023/03/15 00:28:14;;;;;;;3.65;1.25;;;;;;;9.98;35.09;98258.16;6131622;23;20329;-93
2023/03/15 00:30:42;;;;;;;2.85;1.40;;;;;;;9.96;35.40;98250.41;6135345;23;20005;-94
2023/03/15 00:33:12;;;;;;;2.70;1.52;;;;;;;9.90;35.09;98238.91;6136143;23;20004;-93
2023/03/15 00:35:39;;;;;;;4.07;1.95;;;;;;;9.83;35.22;98237.69;6136426;23;20001;-93
2023/03/15 00:38:05;;;;;;;2.38;1.20;;;;;;;9.86;34.97;98242.47;6135588;23;20001;-93
2023/03/15 00:40:41;;;;;;;2.70;1.50;;;;;;;9.82;35.38;98228.03;6135991;23;20001;-94
2023/03/15 00:43:06;;;;;;;2.28;1.27;;;;;;;9.83;36.02;98233.09;6135094;23;20159;-94
2023/03/15 00:45:32;;;;;;;7.30;1.85;;;;;;;9.75;35.90;98222.19;6135609;23;20436;-94
2023/03/15 00:47:58;;;;;;;2.30;1.48;;;;;;;9.64;35.79;98206.22;6135083;23;20316;-93
2023/03/15 00:50:35;;;;;;;2.33;1.55;;;;;;;9.72;35.83;98204.78;6135241;23;20080;-93
2023/03/15 00:53:26;;;;;;;2.28;1.38;;;;;;;9.72;36.29;98207.47;6136082;23;20005;-93
2023/03/15 00:56:21;;;;;;;2.92;1.73;;;;;;;9.74;36.64;98212.56;6136929;23;20001;-94
2023/03/15 00:58:51;;;;;;;4.93;1.55;;;;;;;9.71;36.30;98206.66;6135892;23;20001;-94
2023/03/15 01:01:22;;;;;;;3.70;1.70;;;;;;;9.61;36.44;98185.31;6136047;23;20448;-94
2023/03/15 01:03:51;;;;;;;7.97;2.22;;;;;;;9.75;36.61;98201.50;6135322;23;20356;-95
2023/03/15 01:06:21;;;;;;;3.25;1.77;;;;;;;9.65;36.37;98172.91;6137951;23;20016;-94
2023/03/15 01:08:50;;;;;;;5.15;1.67;;;;;;;9.69;36.36;98195.41;6137492;23;20001;-94
2023/03/15 01:11:24;;;;;;;2.30;1.50;;;;;;;9.71;36.61;98193.22;6138447;23;20009;-94
2023/03/15 01:14:27;;;;;;;2.85;1.70;;;;;;;9.66;36.90;98181.75;6139090;23;20001;-93
2023/03/15 01:16:46;;;;;;;3.70;1.60;;;;;;;9.60;37.06;98172.16;6142386;23;20645;-93
2023/03/15 01:19:12;;;;;;;2.72;1.40;;;;;;;9.56;36.98;98161.19;6136793;23;20020;-93
2023/03/15 01:21:38;;;;;;;4.05;1.40;;;;;;;9.63;36.86;98177.75;6137053;23;20051;-94
2023/03/15 01:24:04;;;;;;;5.43;1.80;;;;;;;9.51;37.21;98161.28;6136976;23;20109;-92
2023/03/15 01:26:35;;;;;;;3.70;1.92;;;;;;;9.56;37.35;98161.19;6136996;23;20000;-93
2023/03/15 01:29:06;;;;;;;2.83;1.75;;;;;;;9.51;37.46;98163.97;6131582;23;20037;-93
2023/03/15 01:31:32;;;;;;;2.22;1.30;;;;;;;9.42;38.09;98154.94;6161194;23;20001;-94
2023/03/15 01:34:10;;;;;;;3.28;1.63;;;;;;;9.35;37.75;98143.78;6137705;23;20004;-93
2023/03/15 01:36:35;;;;;;;3.65;1.85;;;;;;;9.35;38.35;98151.84;6140225;23;20009;-94
2023/03/15 01:39:04;;;;;;;3.35;1.60;;;;;;;9.35;38.13;98143.78;6137250;23;20001;-94
2023/03/15 01:41:33;;;;;;;5.05;1.70;;;;;;;9.40;37.74;98149.88;6136673;23;20001;-94
2023/03/15 01:43:59;;;;;;;4.07;1.50;;;;;;;9.41;37.65;98145.31;6137802;23;20005;-95
2023/03/15 01:46:32;;;;;;;6.20;1.90;;;;;;;9.47;38.09;98147.63;6161943;23;20016;-93
2023/03/15 01:49:17;;;;;;;4.50;1.55;;;;;;;9.41;37.65;98135.34;6138948;23;20001;-95
2023/03/15 01:51:56;;;;;;;3.08;1.50;;;;;;;9.47;38.25;98133.41;6164312;23;20401;-94
2023/03/15 01:54:29;;;;;;;2.72;1.55;;;;;;;9.51;38.12;98140.56;6136498;23;20420;-95
2023/03/15 01:56:59;;;;;;;3.95;2.00;;;;;;;9.52;38.10;98141.38;6137215;23;19997;-94
2023/03/15 01:59:43;;;;;;;4.30;1.80;;;;;;;9.47;38.32;98139.56;6137226;23;20005;-94
2023/03/15 02:02:14;;;;;;;2.40;1.45;;;;;;;9.37;38.25;98120.09;6137789;23;20088;-96
2023/03/15 02:04:49;;;;;;;3.77;1.40;;;;;;;9.46;38.30;98131.78;6136900;23;19997;-94
2023/03/15 02:07:15;;;;;;;2.70;1.65;;;;;;;9.44;38.26;98142.03;6135406;23;20005;-94
2023/03/15 02:10:09;;;;;;;4.25;1.73;;;;;;;9.42;38.77;98139.66;6136476;23;20424;-94
2023/03/15 02:12:37;;;;;;;25.92;4.38;;;;;;;9.31;39.28;98138.19;6154714;23;20012;-94
2023/03/15 02:15:04;;;;;;;6.80;2.38;;;;;;;9.19;39.30;98113.63;6131961;23;20455;-95
2023/03/15 02:17:39;;;;;;;8.68;4.05;;;;;;;9.17;38.93;98123.88;6160727;23;20005;-94
2023/03/15 02:20:39;;;;;;;6.20;2.42;;;;;;;9.12;38.92;98142.75;6137004;23;20101;-93
2023/03/15 02:23:10;;;;;;;3.35;1.88;;;;;;;9.02;38.30;98123.00;6186040;23;20031;-94
2023/03/15 02:26:00;;;;;;;5.75;1.90;;;;;;;9.08;38.65;98134.47;6138177;23;19997;-94
2023/03/15 02:28:28;;;;;;;3.90;2.03;;;;;;;9.05;38.72;98140.44;6184591;23;20067;-93
2023/03/15 02:30:54;;;;;;;3.80;2.13;;;;;;;9.00;39.03;98135.91;6137357;23;20001;-96
2023/03/15 02:33:28;;;;;;;4.50;1.30;;;;;;;9.14;37.51;98143.25;6136017;23;20004;-94
2023/03/15 02:36:01;;;;;;;3.42;1.30;;;;;;;9.28;37.37;98144.16;6137782;23;20023;-94
2023/03/15 02:38:30;;;;;;;2.28;1.30;;;;;;;9.28;37.36;98131.50;6136871;23;20329;-94
2023/03/15 02:40:59;;;;;;;3.28;1.60;;;;;;;9.41;37.16;98143.41;6136821;23;20092;-92
2023/03/15 02:43:26;;;;;;;4.68;1.65;;;;;;;9.44;36.74;98133.97;6136432;23;20032;-93
2023/03/15 02:45:52;;;;;;;3.00;1.60;;;;;;;9.54;36.91;98141.09;6136170;23;20000;-95
2023/03/15 02:48:18;;;;;;;3.90;1.50;;;;;;;9.64;36.92;98149.00;6135778;23;20005;-94
2023/03/15 02:50:44;;;;;;;3.40;1.40;;;;;;;9.56;36.23;98134.31;6137572;23;20000;-93
2023/03/15 02:53:13;;;;;;;4.10;1.65;;;;;;;9.66;36.52;98139.53;6136208;23;20004;-93
2023/03/15 02:55:39;;;;;;;3.20;1.48;;;;;;;9.73;36.21;98144.53;6137180;23;20004;-94
2023/03/15 02:58:04;;;;;;;3.20;1.30;;;;;;;9.68;35.97;98142.72;6136644;23;20001;-94
2023/03/15 03:00:30;;;;;;;2.17;1.30;;;;;;;9.75;35.80;98150.41;6136095;23;20079;-93
2023/03/15 03:02:56;;;;;;;5.22;1.48;;;;;;;9.71;35.38;98146.72;6135814;23;20367;-93
2023/03/15 03:05:22;;;;;;;2.67;1.52;;;;;;;9.80;35.49;98150.34;6136600;23;20005;-93
2023/03/15 03:07:50;;;;;;;2.00;1.30;;;;;;;9.72;35.60;98140.25;6135874;23;20066;-93
2023/03/15 03:10:17;;;;;;;1.77;1.17;;;;;;;9.85;34.95;98158.31;6136043;23;20005;-93
2023/03/15 03:12:46;;;;;;;6.45;1.63;;;;;;;9.89;35.17;98153.94;6135942;23;20005;-93
2023/03/15 03:15:12;;;;;;;3.78;1.40;;;;;;;9.95;35.23;98149.31;6137504;23;20082;-93
2023/03/15 03:17:38;;;;;;;3.55;1.50;;;;;;;9.95;35.26;98135.06;6136473;23;19997;-93
2023/03/15 03:20:08;;;;;;;3.03;1.55;;;;;;;9.83;35.12;98124.75;6135797;23;20008;-95
2023/03/15 03:22:37;;;;;;;3.88;1.80;;;;;;;9.96;34.60;98137.47;6136863;23;20005;-94
2023/03/15 03:25:10;;;;;;;3.00;1.25;;;;;;;9.95;34.78;98146.63;6137099;23;19996;-94
2023/03/15 03:27:36;;;;;;;3.65;1.17;;;;;;;9.87;34.93;98129.25;6137478;23;20340;-95
2023/03/15 03:30:04;;;;;;;3.22;1.30;;;;;;;9.96;35.06;98147.41;6135686;23;20017;-93
2023/03/15 03:32:30;;;;;;;2.85;1.50;;;;;;;9.83;35.11;98122.06;6135693;23;19997;-94
2023/03/15 03:34:56;;;;;;;3.55;1.55;;;;;;;9.90;35.60;98138.63;6136536;23;20007;-93
2023/03/15 03:37:22;;;;;;;3.97;1.60;;;;;;;9.95;35.39;98148.50;6135793;23;19997;-93
2023/03/15 03:39:50;;;;;;;4.07;1.73;;;;;;;9.93;35.73;98148.78;6135530;23;20005;-94
2023/03/15 03:42:16;;;;;;;6.60;1.98;;;;;;;9.78;36.05;98127.56;6136543;23;20008;-93
2023/03/15 03:44:42;;;;;;;5.00;2.20;;;;;;;9.82;35.81;98133.94;6135559;23;20509;-94
2023/03/15 03:47:07;;;;;;;5.30;2.08;;;;;;;9.88;36.03;98141.63;6160419;23;20023;-94
2023/03/15 03:49:36;;;;;;;5.10;1.92;;;;;;;9.96;36.18;98144.72;6160344;23;20004;-94
2023/03/15 03:52:02;;;;;;;4.05;1.67;;;;;;;9.81;36.14;98135.81;6135468;23;20001;-94
2023/03/15 03:54:28;;;;;;;5.90;1.77;;;;;;;9.75;36.56;98133.50;6136408;23;20005;-93
2023/03/15 03:56:57;;;;;;;4.78;1.98;;;;;;;9.78;36.75;98138.31;6136000;23;19997;-94
2023/03/15 03:59:28;;;;;;;4.53;1.92;;;;;;;9.73;36.89;98135.69;6136195;23;20007;-93
2023/03/15 04:01:56;;;;;;;3.25;1.65;;;;;;;9.83;37.02;98154.34;6136158;23;20005;-94
2023/03/15 04:04:25;;;;;;;4.90;2.00;;;;;;;9.72;36.86;98137.56;6134989;23;20005;-94
2023/03/15 04:06:51;;;;;;;2.67;1.73;;;;;;;9.68;37.34;98148.09;6136432;23;20087;-94
2023/03/15 04:09:16;;;;;;;4.53;1.90;;;;;;;9.48;37.77;98137.66;6136386;23;20016;-94
2023/03/15 04:11:44;;;;;;;2.53;1.85;;;;;;;9.55;38.14;98148.06;6135210;23;20005;-94
2023/03/15 04:14:13;;;;;;;5.43;2.30;;;;;;;9.59;38.21;98146.41;6135601;23;20004;-93
2023/03/15 04:16:39;;;;;;;4.93;2.65;;;;;;;9.56;37.94;98142.38;6135494;23;20084;-94
2023/03/15 04:19:08;;;;;;;6.47;2.60;;;;;;;9.55;38.13;98134.63;6136066;23;20056;-93
2023/03/15 04:21:34;;;;;;;7.22;2.70;;;;;;;9.49;38.14;98132.00;6135880;23;20439;-94
2023/03/15 04:24:03;;;;;;;7.88;2.92;;;;;;;9.64;37.99;98151.69;6135452;23;20080;-93
2023/03/15 04:26:46;;;;;;;6.05;2.72;;;;;;;9.64;37.84;98143.63;6136313;23;20001;-93
2023/03/15 04:29:20;;;;;;;9.88;2.88;;;;;;;9.65;38.37;98148.69;6164030;23;20397;-94
2023/03/15 04:32:00;;;;;;;6.55;2.63;;;;;;;9.63;38.28;98142.81;6137729;23;20428;-95
2023/03/15 04:34:29;;;;;;;4.47;2.45;;;;;;;9.65;38.38;98135.25;6136817;23;20000;-95
2023/03/15 04:36:55;;;;;;;2.83;1.65;;;;;;;9.64;38.36;98132.88;6161370;23;20001;-93
2023/03/15 04:39:24;;;;;;;4.18;1.60;;;;;;;9.73;38.58;98144.53;6136096;23;20080;-95
2023/03/15 04:41:53;;;;;;;2.75;1.55;;;;;;;9.75;38.98;98153.09;6136116;23;20354;-94
2023/03/15 04:44:19;;;;;;;3.03;1.90;;;;;;;9.71;38.89;98136.78;6137444;23;20005;-94
2023/03/15 04:46:45;;;;;;;4.95;1.98;;;;;;;9.74;38.60;98156.91;6136253;23;20024;-94
2023/03/15 04:49:11;;;;;;;5.40;1.70;;;;;;;9.66;39.27;98141.44;6135313;23;20001;-95
2023/03/15 04:51:37;;;;;;;3.35;1.77;;;;;;;9.82;38.90;98164.31;6135807;23;20001;-94
2023/03/15 04:54:03;;;;;;;5.15;1.77;;;;;;;9.76;39.02;98149.34;6135415;23;20005;-95
2023/03/15 04:56:34;;;;;;;8.13;1.73;;;;;;;9.62;39.04;98127.78;6136168;23;20005;-94
2023/03/15 04:59:10;;;;;;;4.40;2.03;;;;;;;9.85;38.65;98154.84;6144447;23;20035;-96
2023/03/15 05:01:35;;;;;;;3.08;1.75;;;;;;;9.71;39.06;98127.91;6135762;23;20261;-95
2023/03/15 05:15:31;;;;;;;;;;;;;;;;;;;;;
2023/03/15 05:17:58;;;;;;;4.28;1.73;;;;;;;9.96;38.95;98140.16;5782909;24;20022;-94
2023/03/15 05:20:58;;;;;;;8.63;1.83;;;;;;;10.05;38.61;98141.06;5848075;24;20006;-96
2023/03/15 05:23:35;;;;;;;3.40;1.77;;;;;;;10.09;38.34;98138.59;5858674;23;20028;-96
2023/03/15 05:26:43;;;;;;;;;;;;;;;;;;;;;
2023/03/15 05:29:23;;;;;;;8.93;2.70;;;;;;;10.33;37.93;98133.06;5868877;24;20032;-94
2023/03/15 05:32:25;;;;;;;6.72;2.25;;;;;;;10.36;37.63;98127.09;5872005;24;20013;-96
2023/03/15 05:35:05;;;;;;;5.60;2.13;;;;;;;10.44;37.40;98128.31;5965672;23;20021;-96
2023/03/15 05:37:34;;;;;;;3.35;2.00;;;;;;;10.60;36.93;98144.94;6122763;23;20041;-94
2023/03/15 05:40:16;;;;;;;7.00;2.05;;;;;;;10.64;36.76;98145.94;6140393;23;20001;-95
2023/03/15 05:42:51;;;;;;;6.32;3.10;;;;;;;10.63;37.29;98134.41;6121313;23;20010;-96
2023/03/15 05:45:33;;;;;;;5.25;2.70;;;;;;;10.67;37.37;98124.63;6125696;23;20017;-96
2023/03/15 05:48:19;;;;;;;4.93;2.28;;;;;;;10.75;37.05;98117.75;6093444;23;20441;-95
2023/03/15 05:50:54;;;;;;;5.55;2.50;;;;;;;10.90;37.01;98124.72;6144131;23;20057;-95
2023/03/15 05:53:36;;;;;;;3.53;1.90;;;;;;;10.86;36.97;98107.56;6130720;23;19997;-95
2023/03/15 05:56:29;;;;;;;13.33;5.63;;;;;;;11.01;36.84;98115.31;6149074;23;19981;-95
2023/03/15 06:02:02;;;;;;;5.70;2.80;;;;;;;11.22;36.78;98114.88;6178950;22;20022;-94
2023/03/15 06:04:45;;;;;;;180.60;96.15;;;;;;;11.33;36.70;98121.63;6092201;23;20021;-94
2023/03/15 06:07:25;;;;;;;24.50;10.85;;;;;;;11.39;36.22;98103.44;6124893;23;20496;-96
2023/03/15 06:10:10;;;;;;;5.15;2.55;;;;;;;11.46;35.98;98101.13;6133057;23;20021;-94
2023/03/15 06:12:35;;;;;;;3.83;2.13;;;;;;;11.70;35.60;98119.69;6081335;23;20002;-95
2023/03/15 06:17:57;;;;;;;5.45;2.30;;;;;;;11.85;35.45;98110.41;6156349;23;20028;-93
2023/03/15 06:20:26;;;;;;;8.65;3.33;;;;;;;11.76;35.85;98109.56;6136347;23;20385;-94
2023/03/15 06:22:55;;;;;;;8.27;3.65;;;;;;;11.87;35.59;98092.03;6111292;23;20010;-96
2023/03/15 06:25:21;;;;;;;10.02;4.10;;;;;;;11.99;35.05;98078.78;6112835;23;20001;-95
2023/03/15 06:27:49;;;;;;;6.70;3.38;;;;;;;12.12;35.03;98085.22;6140601;23;20025;-95
2023/03/15 06:30:27;;;;;;;7.18;3.40;;;;;;;12.11;34.73;98070.91;6142200;23;20001;-95
2023/03/15 06:33:14;;;;;;;10.43;6.25;;;;;;;12.30;34.85;98083.38;6113393;23;20111;-94
2023/03/15 06:39:11;;;;;;;3.75;2.03;;;;;;;12.41;34.10;98055.03;6132730;23;20036;-95
2023/03/15 06:41:56;;;;;;;4.35;2.35;;;;;;;12.66;34.12;98079.72;6060399;23;20092;-95
2023/03/15 06:44:50;;;;;;;4.70;2.28;;;;;;;12.59;34.42;98079.38;6071002;23;20018;-95
2023/03/15 06:47:49;;;;;;;11.32;4.93;;;;;;;12.84;33.77;98085.94;6061135;23;20431;-92
2023/03/15 06:50:33;;;;;;;7.55;3.10;;;;;;;12.89;33.52;98083.88;6043305;23;20268;-93
2023/03/15 06:53:33;;;;;;;8.32;2.63;;;;;;;12.99;33.01;98098.19;6094794;23;20017;-93
2023/03/15 06:56:02;;;;;;;5.82;3.42;;;;;;;12.84;32.91;98086.72;6114107;23;20018;-95
2023/03/15 06:58:28;;;;;;;14.77;2.10;;;;;;;12.83;33.02;98101.34;6094750;23;20049;-94
2023/03/15 07:05:17;;;;;;;;;;;;;;;;;;;;;
2023/03/15 07:10:34;;;;;;;7.80;3.20;;;;;;;13.02;32.46;98098.38;6082445;23;20025;-93
2023/03/15 07:13:12;;;;;;;;;;;;;;;;;;;;;
2023/03/15 07:15:50;;;;;;;2.53;1.60;;;;;;;13.26;32.40;98105.22;6061899;23;20437;-94
2023/03/15 07:18:42;;;;;;;5.35;2.47;;;;;;;13.38;31.92;98099.22;6060371;23;20006;-96
2023/03/15 07:21:08;;;;;;;5.30;2.63;;;;;;;13.39;32.20;98093.50;6055736;23;20500;-94
2023/03/15 07:23:46;;;;;;;7.20;2.15;;;;;;;13.37;31.76;98084.91;6052281;23;19990;-94
2023/03/15 07:26:11;;;;;;;3.30;2.03;;;;;;;13.55;31.29;98085.72;6033134;23;20006;-96
2023/03/15 07:32:00;;;;;;;3.40;1.60;;;;;;;13.50;31.35;98072.34;6105407;23;20009;-94
2023/03/15 07:39:37;;;;;;;4.78;2.25;;;;;;;13.83;31.39;98078.00;6145463;22;20030;-92
2023/03/15 07:42:30;;;;;;;2.80;1.90;;;;;;;13.99;30.43;98086.41;6112109;23;20020;-95
2023/03/15 07:45:37;;;;;;;;;;;;;;;;;;;;;
2023/03/15 08:06:03;;;;;;;8.77;2.83;;;;;;;13.97;31.28;98058.09;6024219;23;20044;-94
2023/03/15 08:15:25;;;;;;;21.88;6.55;;;;;;;14.19;31.37;98057.84;5859931;23;20076;-95
2023/03/15 08:18:07;;;;;;;6.15;2.17;;;;;;;14.40;30.76;98036.28;5996770;23;20040;-95
2023/03/15 08:21:10;;;;;;;8.18;2.00;;;;;;;14.52;30.92;98040.97;5982918;23;20010;-94
2023/03/15 08:23:43;;;;;;;4.82;2.10;;;;;;;14.28;31.03;98031.53;5948550;24;20036;-95
2023/03/15 08:26:48;;;;;;;4.32;2.10;;;;;;;14.29;31.02;98025.00;5951407;24;20009;-96
2023/03/15 08:29:22;;;;;;;8.50;3.88;;;;;;;14.46;30.94;98032.22;5993618;23;20025;-94
2023/03/15 08:31:47;;;;;;;7.90;2.30;;;;;;;14.68;30.74;98031.19;6108464;23;20012;-94
2023/03/15 08:34:24;;;;;;;13.40;5.20;;;;;;;14.49;31.21;98044.34;6084726;23;20014;-95
2023/03/15 08:36:50;;;;;;;5.32;3.63;;;;;;;14.85;31.22;98035.69;6134076;23;20002;-95
2023/03/15 08:39:15;;;;;;;6.95;3.08;;;;;;;15.05;30.90;98038.75;6083927;23;20065;-94
2023/03/15 08:41:42;;;;;;;5.22;1.90;;;;;;;14.88;30.63;98031.53;6111303;23;20013;-93
2023/03/15 08:44:09;;;;;;;4.05;2.20;;;;;;;14.93;30.54;98026.72;6108296;23;20010;-95
2023/03/15 08:46:37;;;;;;;3.05;1.98;;;;;;;15.08;29.94;98025.31;6104744;23;20086;-95
2023/03/15 08:49:06;;;;;;;4.68;2.72;;;;;;;15.11;30.40;98023.88;6104390;23;20382;-94
2023/03/15 08:51:34;;;;;;;5.63;2.15;;;;;;;15.19;30.22;98030.34;6106024;23;20022;-94
2023/03/15 08:54:05;;;;;;;6.30;2.10;;;;;;;14.78;31.68;98031.94;6086225;23;20002;-96
2023/03/15 08:56:39;;;;;;;5.35;2.20;;;;;;;14.68;31.25;98030.41;6088412;23;20045;-94
2023/03/15 08:59:31;;;;;;;6.50;2.30;;;;;;;14.78;31.28;98013.75;6116253;23;20006;-96
2023/03/15 09:05:16;;;;;;;4.18;2.00;;;;;;;15.07;30.40;98044.66;6100430;23;20065;-95
2023/03/15 09:07:42;;;;;;;3.20;1.75;;;;;;;15.04;30.36;98026.31;6087540;23;19998;-94
2023/03/15 09:10:20;;;;;;;4.82;1.77;;;;;;;15.13;29.94;98033.25;6102421;23;20002;-92
2023/03/15 09:12:58;;;;;;;6.40;2.33;;;;;;;15.09;30.39;98005.22;6105303;23;20021;-92
2023/03/15 09:15:34;;;;;;;7.47;2.10;;;;;;;15.17;30.40;98030.69;6078351;23;20005;-93
2023/03/15 09:18:02;;;;;;;4.40;2.40;;;;;;;15.20;29.96;98012.97;6078585;23;20025;-92
2023/03/15 09:20:28;;;;;;;9.38;3.88;;;;;;;15.33;29.98;98026.22;6103279;23;20006;-95
2023/03/15 09:23:06;;;;;;;5.82;3.22;;;;;;;14.88;30.09;98026.91;6085637;23;20338;-95
2023/03/15 09:25:32;;;;;;;11.73;5.35;;;;;;;15.02;30.30;98029.34;6109950;23;20336;-94
2023/03/15 09:28:04;;;;;;;14.55;6.50;;;;;;;14.75;30.04;98012.50;6061323;23;20013;-95
2023/03/15 09:30:39;;;;;;;5.03;2.58;;;;;;;14.70;30.79;98011.91;6060262;23;20097;-93
2023/03/15 09:33:06;;;;;;;5.95;2.67;;;;;;;14.38;31.05;98014.13;6109096;23;20417;-95
2023/03/15 09:35:32;;;;;;;7.82;3.25;;;;;;;14.53;31.30;98002.72;6082457;23;20088;-94
2023/03/15 09:38:02;;;;;;;7.53;3.90;;;;;;;14.94;30.73;97993.06;6081245;23;19994;-94
2023/03/15 09:40:33;;;;;;;4.15;2.17;;;;;;;15.23;30.12;98012.28;6086214;23;20496;-93
2023/03/15 09:43:33;;;;;;;7.75;1.90;;;;;;;15.46;29.62;98015.41;6111552;23;20445;-95
2023/03/15 09:46:37;;;;;;;4.07;1.80;;;;;;;15.67;28.85;97994.47;6079124;23;20031;-94
2023/03/15 09:49:20;;;;;;;9.73;3.78;;;;;;;15.61;29.33;98000.44;6099744;23;20482;-94
2023/03/15 09:54:40;;;;;;;6.65;2.67;;;;;;;15.47;29.45;97976.31;6106053;23;20027;-92
2023/03/15 09:57:17;;;;;;;6.38;3.22;;;;;;;16.05;28.76;97985.25;6088985;23;20002;-92
2023/03/15 09:59:46;;;;;;;38.65;4.93;;;;;;;16.17;28.92;97979.84;6057210;23;20006;-93
2023/03/15 10:02:22;;;;;;;7.75;2.90;;;;;;;16.22;28.53;97964.44;6057759;23;20009;-92
2023/03/15 10:05:33;;;;;;;12.23;2.45;;;;;;;16.26;28.47;97985.16;6060232;23;20341;-93
2023/03/15 10:07:59;;;;;;;6.53;2.33;;;;;;;16.46;28.16;97982.66;6121271;23;20021;-92
2023/03/15 10:10:30;;;;;;;7.63;2.67;;;;;;;16.77;28.12;97968.44;6122662;23;19990;-92
2023/03/15 10:13:07;;;;;;;8.95;2.38;;;;;;;16.99;27.46;97967.16;6122306;23;20101;-93
2023/03/15 10:15:44;;;;;;;3.15;2.00;;;;;;;17.23;26.71;97966.28;6122311;23;20001;-93
2023/03/15 10:18:46;;;;;;;3.80;1.90;;;;;;;17.50;26.84;97970.09;6099623;23;19997;-92
2023/03/15 10:21:16;;;;;;;9.55;2.03;;;;;;;17.40;25.76;97950.78;6124992;23;20020;-93
2023/03/15 10:23:44;;;;;;;2.95;1.80;;;;;;;17.47;26.45;97953.69;6114641;23;20005;-91
2023/03/15 10:26:11;;;;;;;3.92;2.30;;;;;;;17.72;26.10;97968.75;6145764;23;20058;-92
2023/03/15 10:28:39;;;;;;;4.53;1.75;;;;;;;17.14;26.26;97933.78;6121152;23;20408;-92
2023/03/15 10:36:25;;;;;;;9.30;2.38;;;;;;;16.99;27.31;97936.47;6177908;23;20087;-93
2023/03/15 10:39:10;;;;;;;6.25;1.90;;;;;;;16.94;26.35;97959.25;6180777;23;20009;-92
2023/03/15 10:41:44;;;;;;;3.42;1.90;;;;;;;17.32;26.33;97952.50;6154321;23;20002;-93
2023/03/15 10:44:20;;;;;;;4.38;2.08;;;;;;;17.45;26.35;97940.44;6130094;23;20013;-94
2023/03/15 10:47:36;;;;;;;2.47;1.52;;;;;;;17.11;26.37;97912.72;6131266;23;20042;-94
2023/03/15 10:50:10;;;;;;;6.60;2.50;;;;;;;17.20;26.14;97930.81;6121389;23;20003;-92
2023/03/15 10:52:55;;;;;;;7.85;2.20;;;;;;;17.33;25.87;97935.06;6057414;23;20469;-91
2023/03/15 10:55:35;;;;;;;5.50;1.83;;;;;;;17.38;25.40;97927.41;6056713;23;20122;-90
2023/03/15 10:58:17;;;;;;;6.15;2.22;;;;;;;17.49;26.32;97935.88;6035998;23;20003;-92
2023/03/15 11:00:49;;;;;;;6.60;1.98;;;;;;;17.49;26.42;97935.88;6033343;23;20003;-92
2023/03/15 11:03:23;;;;;;;2.25;1.77;;;;;;;17.21;26.66;97913.38;6039894;23;20007;-93
2023/03/15 11:06:36;;;;;;;11.35;4.15;;;;;;;17.11;27.09;97933.69;6033532;23;20030;-92
2023/03/15 11:09:10;;;;;;;5.97;2.42;;;;;;;17.39;26.88;97930.94;6026984;23;20010;-92
2023/03/15 11:11:59;;;;;;;3.45;1.80;;;;;;;17.21;26.58;97916.09;6031516;23;20315;-93
2023/03/15 11:14:44;;;;;;;6.45;2.22;;;;;;;17.44;26.45;97913.56;6082301;23;20079;-91
2023/03/15 11:17:31;;;;;;;6.43;2.00;;;;;;;17.80;26.58;97934.28;6025950;23;20024;-88
2023/03/15 11:20:04;;;;;;;7.95;6.25;;;;;;;17.53;26.64;97919.63;6026162;23;20033;-88
2023/03/15 11:22:30;;;;;;;3.92;1.98;;;;;;;17.65;26.79;97922.25;6029243;23;20006;-89
2023/03/15 11:24:58;;;;;;;4.38;2.10;;;;;;;17.89;26.15;97932.22;6055305;23;20002;-96
2023/03/15 11:27:31;;;;;;;6.32;2.40;;;;;;;18.02;25.81;97930.19;6109860;23;20076;-92
2023/03/15 11:29:58;;;;;;;4.53;2.00;;;;;;;18.00;25.82;97910.69;6111909;23;20009;-92
2023/03/15 11:32:25;;;;;;;5.70;1.88;;;;;;;17.86;25.88;97907.63;6114480;23;20013;-92
2023/03/15 11:35:10;;;;;;;5.75;1.92;;;;;;;18.09;26.14;97907.78;6115984;23;20009;-94
2023/03/15 11:37:49;;;;;;;5.70;2.22;;;;;;;18.26;25.90;97909.31;6139103;23;20033;-93
2023/03/15 11:40:22;;;;;;;2.92;1.60;;;;;;;18.13;25.78;97900.47;6139011;23;20013;-93
2023/03/15 11:43:04;;;;;;;2.42;1.60;;;;;;;17.82;26.32;97914.88;6112623;23;20295;-92
2023/03/15 11:45:38;;;;;;;7.95;2.30;;;;;;;17.04;26.59;97907.09;6144160;23;20008;-93
2023/03/15 11:48:59;;;;;;;5.65;1.52;;;;;;;17.17;26.22;97903.16;6134717;23;19997;-92
2023/03/15 11:51:27;;;;;;;2.83;1.60;;;;;;;16.99;26.93;97892.94;6081924;23;20010;-91
2023/03/15 11:54:06;;;;;;;9.35;5.13;;;;;;;16.85;27.58;97898.78;6092216;23;20032;-94
2023/03/15 11:57:03;;;;;;;7.90;2.70;;;;;;;16.86;26.78;97878.63;6136895;23;20001;-92
2023/03/15 11:59:38;;;;;;;4.25;2.80;;;;;;;16.97;26.19;97871.53;6118542;23;20037;-92
2023/03/15 12:02:35;;;;;;;5.35;2.08;;;;;;;16.98;25.87;97867.69;6097908;23;19982;-92
2023/03/15 12:05:43;;;;;;;9.40;2.15;;;;;;;16.91;26.23;97878.38;6159181;23;20005;-91
2023/03/15 12:08:28;;;;;;;2.85;1.60;;;;;;;16.82;26.23;97880.47;6142204;23;20096;-91
2023/03/15 12:10:55;;;;;;;5.50;2.00;;;;;;;16.77;26.40;97874.09;6140999;23;20012;-93
2023/03/15 12:13:30;;;;;;;4.70;1.60;;;;;;;16.80;25.88;97874.53;6128690;23;20001;-94
2023/03/15 12:15:56;;;;;;;2.13;1.42;;;;;;;16.75;26.08;97846.47;6118183;23;20005;-95
2023/03/15 12:18:56;;;;;;;;;;;;;;;;;;;;;
2023/03/15 12:24:07;;;;;;;7.25;2.38;;;;;;;17.32;25.59;97860.78;6186515;22;20005;-93
2023/03/15 12:26:57;;;;;;;3.60;2.92;;;;;;;17.51;24.46;97868.25;6171584;23;20028;-92
2023/03/15 12:29:35;;;;;;;3.25;1.77;;;;;;;17.46;25.27;97845.97;6106302;23;20025;-91
2023/03/15 12:32:01;;;;;;;14.52;3.63;;;;;;;17.61;24.97;97844.38;6065938;23;19998;-92
2023/03/15 12:34:38;;;;;;;3.65;1.73;;;;;;;17.66;25.16;97863.16;6114471;23;20050;-92
2023/03/15 12:37:12;;;;;;;3.58;2.00;;;;;;;17.69;24.98;97849.66;6061485;23;20006;-91
2023/03/15 12:40:37;;;;;;;5.45;2.17;;;;;;;17.72;26.58;97867.19;6036214;23;20069;-92
2023/03/15 12:43:04;;;;;;;2.92;1.75;;;;;;;17.54;26.93;97853.97;6108556;23;20003;-92
2023/03/15 12:45:39;;;;;;;4.80;2.10;;;;;;;17.42;26.72;97851.31;6040931;23;20062;-90
2023/03/15 12:48:13;;;;;;;3.05;2.10;;;;;;;17.19;26.90;97853.09;6079396;23;20013;-94
2023/03/15 12:50:44;;;;;;;4.18;2.53;;;;;;;16.99;27.52;97869.25;6087614;23;20018;-93
2023/03/15 12:53:28;;;;;;;3.58;2.20;;;;;;;16.88;28.02;97865.47;6085106;23;19998;-91
2023/03/15 12:59:49;;;;;;;3.30;2.10;;;;;;;16.73;27.94;97843.31;6070290;23;20029;-89
2023/03/15 13:03:10;;;;;;;3.47;1.98;;;;;;;16.91;27.94;97881.91;6150240;23;20107;-89
2023/03/15 13:05:52;;;;;;;;;;;;;;;;;;;;;
2023/03/15 13:09:04;;;;;;;5.47;2.05;;;;;;;17.16;27.89;97887.19;6032148;23;20027;-90
2023/03/15 13:12:07;;;;;;;4.80;1.98;;;;;;;17.23;27.65;97883.88;6174898;23;20036;-91
2023/03/15 13:15:16;;;;;;;3.92;2.05;;;;;;;17.19;28.07;97886.50;6204929;23;20001;-88
2023/03/15 13:17:54;;;;;;;4.80;2.65;;;;;;;17.30;28.08;97887.56;6180297;23;20024;-88
2023/03/15 13:20:44;;;;;;;3.22;2.10;;;;;;;17.39;28.00;97892.84;6199883;23;20001;-89
2023/03/15 13:23:19;;;;;;;15.82;7.97;;;;;;;17.33;27.62;97880.66;6189905;23;20033;-90
2023/03/15 13:25:53;;;;;;;8.20;3.20;;;;;;;17.26;28.01;97892.13;6171524;23;20154;-88
2023/03/15 13:28:36;;;;;;;8.07;4.00;;;;;;;17.21;28.08;97886.16;6169348;23;19996;-88
2023/03/15 13:31:16;;;;;;;4.68;2.50;;;;;;;17.20;28.58;97896.22;6166612;23;20016;-88
2023/03/15 13:33:48;;;;;;;5.78;3.28;;;;;;;17.02;29.12;97878.69;6169474;23;20380;-89
2023/03/15 13:36:15;;;;;;;4.32;2.38;;;;;;;17.09;29.28;97890.50;6168332;23;20072;-88
2023/03/15 13:38:57;;;;;;;5.35;2.95;;;;;;;17.13;28.88;97883.25;6146988;23;20005;-89
2023/03/15 13:41:36;;;;;;;3.30;2.30;;;;;;;17.29;28.66;97920.56;6176777;23;20012;-88